sensor_id;sensor_type;location;lat;lon;timestamp;pressure;altitude;pressure_sealevel;temperature;humidity
21086;BME280;34247;50.064;19.970;2023-01-25T00:00:47;101278.06;;;3.48;100.00
21086;BME280;34247;50.064;19.970;2023-01-25T00:01:52;101281.53;;;3.47;100.00
21086;BME280;34247;50.064;19.970;2023-01-25T00:02:56;101275.41;;;3.50;100.00
21086;BME280;34247;50.064;19.970;2023-01-25T00:04:00;101278.03;;;3.51;100.00
21086;BME280;34247;50.064;19.970;2023-01-25T00:05:04;101278.00;;;3.53;100.00
21086;BME280;34247;50.064;19.970;2023-01-25T00:06:14;101278.00;;;3.53;100.00
21086;BME280;34247;50.064;19.970;2023-01-25T00:07:18;101288.50;;;3.54;100.00
21086;BME280;34247;50.064;19.970;2023-01-25T00:08:22;101277.97;;;3.54;100.00
21086;BME280;34247;50.064;19.970;2023-01-25T00:09:26;101279.75;;;3.55;100.00
21086;BME280;34247;50.064;19.970;2023-01-25T00:10:30;101276.25;;;3.56;100.00
21086;BME280;34247;50.064;19.970;2023-01-25T00:11:34;101271.84;;;3.57;100.00
21086;BME280;34247;50.064;19.970;2023-01-25T00:12:40;101269.25;;;3.55;100.00
21086;BME280;34247;50.064;19.970;2023-01-25T00:13:44;101269.22;;;3.57;100.00
21086;BME280;34247;50.064;19.970;2023-01-25T00:14:48;101267.47;;;3.57;100.00
21086;BME280;34247;50.064;19.970;2023-01-25T00:15:52;101273.63;;;3.52;100.00
21086;BME280;34247;50.064;19.970;2023-01-25T00:16:56;101275.38;;;3.56;100.00
21086;BME280;34247;50.064;19.970;2023-01-25T00:18:03;101271.00;;;3.53;100.00
21086;BME280;34247;50.064;19.970;2023-01-25T00:19:13;101268.38;;;3.55;100.00
21086;BME280;34247;50.064;19.970;2023-01-25T00:20:17;101266.63;;;3.54;100.00
21086;BME280;34247;50.064;19.970;2023-01-25T00:21:24;101266.63;;;3.52;100.00
21086;BME280;34247;50.064;19.970;2023-01-25T00:22:29;101271.88;;;3.55;100.00
21086;BME280;34247;50.064;19.970;2023-01-25T00:23:33;101265.69;;;3.59;100.00
21086;BME280;34247;50.064;19.970;2023-01-25T00:24:37;101263.94;;;3.60;100.00
21086;BME280;34247;50.064;19.970;2023-01-25T00:25:41;101270.94;;;3.63;100.00
21086;BME280;34247;50.064;19.970;2023-01-25T00:26:45;101280.56;;;3.60;100.00
21086;BME280;34247;50.064;19.970;2023-01-25T00:27:49;101281.44;;;3.61;100.00
21086;BME280;34247;50.064;19.970;2023-01-25T00:28:54;101276.19;;;3.63;100.00
21086;BME280;34247;50.064;19.970;2023-01-25T00:30:02;101282.31;;;3.63;100.00
21086;BME280;34247;50.064;19.970;2023-01-25T00:31:20;101277.91;;;3.62;100.00
21086;BME280;34247;50.064;19.970;2023-01-25T00:32:48;101269.22;;;3.58;100.00
21086;BME280;34247;50.064;19.970;2023-01-25T00:35:30;101262.25;;;3.56;100.00
21086;BME280;34247;50.064;19.970;2023-01-25T00:37:46;101264.88;;;3.56;100.00
21086;BME280;34247;50.064;19.970;2023-01-25T00:38:53;101262.22;;;3.57;100.00
21086;BME280;34247;50.064;19.970;2023-01-25T00:39:57;101268.38;;;3.56;100.00
21086;BME280;34247;50.064;19.970;2023-01-25T00:41:01;101266.59;;;3.58;100.00
21086;BME280;34247;50.064;19.970;2023-01-25T00:42:15;101269.25;;;3.55;100.00
21086;BME280;34247;50.064;19.970;2023-01-25T00:43:20;101270.09;;;3.57;100.00
21086;BME280;34247;50.064;19.970;2023-01-25T00:44:24;101273.59;;;3.58;100.00
21086;BME280;34247;50.064;19.970;2023-01-25T00:45:27;101264.84;;;3.59;100.00
21086;BME280;34247;50.064;19.970;2023-01-25T00:46:32;101260.44;;;3.59;100.00
21086;BME280;34247;50.064;19.970;2023-01-25T00:47:35;101256.06;;;3.60;100.00
21086;BME280;34247;50.064;19.970;2023-01-25T00:48:39;101263.91;;;3.62;100.00
21086;BME280;34247;50.064;19.970;2023-01-25T00:49:44;101255.19;;;3.59;100.00
21086;BME280;34247;50.064;19.970;2023-01-25T00:50:49;101259.56;;;3.60;100.00
21086;BME280;34247;50.064;19.970;2023-01-25T00:51:54;101264.00;;;3.55;100.00
21086;BME280;34247;50.064;19.970;2023-01-25T00:53:03;101257.00;;;3.56;100.00
21086;BME280;34247;50.064;19.970;2023-01-25T00:54:13;101248.19;;;3.60;100.00
21086;BME280;34247;50.064;19.970;2023-01-25T00:55:25;101249.94;;;3.63;100.00
21086;BME280;34247;50.064;19.970;2023-01-25T00:56:30;101247.25;;;3.66;100.00
21086;BME280;34247;50.064;19.970;2023-01-25T00:57:34;101248.13;;;3.68;100.00
21086;BME280;34247;50.064;19.970;2023-01-25T00:58:37;101244.63;;;3.67;100.00
21086;BME280;34247;50.064;19.970;2023-01-25T00:59:42;101250.75;;;3.68;100.00
21086;BME280;34247;50.064;19.970;2023-01-25T01:00:47;101245.50;;;3.68;100.00
21086;BME280;34247;50.064;19.970;2023-01-25T01:01:55;101245.47;;;3.69;100.00
21086;BME280;34247;50.064;19.970;2023-01-25T01:03:00;101249.84;;;3.69;100.00
21086;BME280;34247;50.064;19.970;2023-01-25T01:04:03;101249.00;;;3.70;100.00
21086;BME280;34247;50.064;19.970;2023-01-25T01:05:18;101246.38;;;3.67;100.00
21086;BME280;34247;50.064;19.970;2023-01-25T01:06:25;101246.38;;;3.67;100.00
21086;BME280;34247;50.064;19.970;2023-01-25T01:07:29;101245.50;;;3.68;100.00
21086;BME280;34247;50.064;19.970;2023-01-25T01:08:40;101239.41;;;3.64;100.00
21086;BME280;34247;50.064;19.970;2023-01-25T01:09:44;101238.47;;;3.68;100.00
21086;BME280;34247;50.064;19.970;2023-01-25T01:10:48;101234.09;;;3.67;100.00
21086;BME280;34247;50.064;19.970;2023-01-25T01:11:52;101241.13;;;3.70;100.00
21086;BME280;34247;50.064;19.970;2023-01-25T01:12:57;101237.59;;;3.71;100.00
21086;BME280;34247;50.064;19.970;2023-01-25T01:14:09;101241.13;;;3.67;100.00
21086;BME280;34247;50.064;19.970;2023-01-25T01:15:14;101237.59;;;3.71;100.00
21086;BME280;34247;50.064;19.970;2023-01-25T01:16:18;101238.44;;;3.74;100.00
21086;BME280;34247;50.064;19.970;2023-01-25T01:17:22;101227.03;;;3.74;100.00
21086;BME280;34247;50.064;19.970;2023-01-25T01:18:25;101234.91;;;3.75;100.00
21086;BME280;34247;50.064;19.970;2023-01-25T01:19:30;101230.53;;;3.76;100.00
21086;BME280;34247;50.064;19.970;2023-01-25T01:20:34;101235.78;;;3.79;100.00
21086;BME280;34247;50.064;19.970;2023-01-25T01:21:38;101230.53;;;3.74;100.00
21086;BME280;34247;50.064;19.970;2023-01-25T01:22:42;101223.56;;;3.72;100.00
21086;BME280;34247;50.064;19.970;2023-01-25T01:23:46;101227.09;;;3.71;100.00
21086;BME280;34247;50.064;19.970;2023-01-25T01:24:50;101216.53;;;3.75;100.00
21086;BME280;34247;50.064;19.970;2023-01-25T01:25:54;101212.16;;;3.77;100.00
21086;BME280;34247;50.064;19.970;2023-01-25T01:26:59;101205.97;;;3.80;100.00
21086;BME280;34247;50.064;19.970;2023-01-25T01:28:12;101205.09;;;3.81;100.00
21086;BME280;34247;50.064;19.970;2023-01-25T01:29:16;101189.38;;;3.78;100.00
21086;BME280;34247;50.064;19.970;2023-01-25T01:30:19;101192.84;;;3.80;100.00
21086;BME280;34247;50.064;19.970;2023-01-25T01:31:24;101193.69;;;3.82;100.00
21086;BME280;34247;50.064;19.970;2023-01-25T01:32:28;101189.31;;;3.82;100.00
21086;BME280;34247;50.064;19.970;2023-01-25T01:33:32;101191.94;;;3.81;100.00
21086;BME280;34247;50.064;19.970;2023-01-25T01:34:38;101198.16;;;3.77;100.00
21086;BME280;34247;50.064;19.970;2023-01-25T01:35:42;101184.09;;;3.79;100.00
21086;BME280;34247;50.064;19.970;2023-01-25T01:36:50;101183.25;;;3.76;100.00
21086;BME280;34247;50.064;19.970;2023-01-25T01:37:53;101183.25;;;3.76;100.00
21086;BME280;34247;50.064;19.970;2023-01-25T01:38:58;101184.97;;;3.78;100.00
21086;BME280;34247;50.064;19.970;2023-01-25T01:40:02;101179.72;;;3.80;100.00
21086;BME280;34247;50.064;19.970;2023-01-25T01:41:16;101176.22;;;3.79;100.00
21086;BME280;34247;50.064;19.970;2023-01-25T01:42:23;101188.53;;;3.73;100.00
21086;BME280;34247;50.064;19.970;2023-01-25T01:43:27;101182.34;;;3.78;100.00
21086;BME280;34247;50.064;19.970;2023-01-25T01:44:47;101186.69;;;3.81;100.00
21086;BME280;34247;50.064;19.970;2023-01-25T01:45:55;101177.97;;;3.79;100.00
21086;BME280;34247;50.064;19.970;2023-01-25T01:47:00;101189.31;;;3.81;100.00
21086;BME280;34247;50.064;19.970;2023-01-25T01:48:04;101187.53;;;3.83;100.00
21086;BME280;34247;50.064;19.970;2023-01-25T01:49:30;101182.28;;;3.83;100.00
21086;BME280;34247;50.064;19.970;2023-01-25T01:50:35;101182.34;;;3.80;100.00
21086;BME280;34247;50.064;19.970;2023-01-25T01:51:54;101181.44;;;3.81;100.00
21086;BME280;34247;50.064;19.970;2023-01-25T01:53:00;101177.97;;;3.79;100.00
21086;BME280;34247;50.064;19.970;2023-01-25T01:54:23;101171.81;;;3.80;100.00
21086;BME280;34247;50.064;19.970;2023-01-25T01:55:28;101176.16;;;3.82;100.00
21086;BME280;34247;50.064;19.970;2023-01-25T01:56:51;101174.41;;;3.83;100.00
21086;BME280;34247;50.064;19.970;2023-01-25T01:58:04;101170.91;;;3.82;100.00
21086;BME280;34247;50.064;19.970;2023-01-25T01:59:27;101170.03;;;3.82;100.00
21086;BME280;34247;50.064;19.970;2023-01-25T02:00:39;101166.53;;;3.81;100.00
21086;BME280;34247;50.064;19.970;2023-01-25T02:01:44;101158.69;;;3.80;100.00
21086;BME280;34247;50.064;19.970;2023-01-25T02:02:50;101159.56;;;3.80;100.00
21086;BME280;34247;50.064;19.970;2023-01-25T02:03:55;101156.97;;;3.79;100.00
21086;BME280;34247;50.064;19.970;2023-01-25T02:05:03;101158.69;;;3.80;100.00
21086;BME280;34247;50.064;19.970;2023-01-25T02:06:38;101153.41;;;3.81;100.00
21086;BME280;34247;50.064;19.970;2023-01-25T02:07:46;101146.44;;;3.79;100.00
21086;BME280;34247;50.064;19.970;2023-01-25T02:08:53;101153.53;;;3.72;100.00
21086;BME280;34247;50.064;19.970;2023-01-25T02:09:59;101149.13;;;3.74;100.00
21086;BME280;34247;50.064;19.970;2023-01-25T02:11:13;101149.97;;;3.75;100.00
21086;BME280;34247;50.064;19.970;2023-01-25T02:12:21;101142.97;;;3.77;100.00
21086;BME280;34247;50.064;19.970;2023-01-25T02:13:27;101148.22;;;3.77;100.00
21086;BME280;34247;50.064;19.970;2023-01-25T02:14:33;101149.97;;;3.78;100.00
21086;BME280;34247;50.064;19.970;2023-01-25T02:15:42;101150.81;;;3.80;100.00
21086;BME280;34247;50.064;19.970;2023-01-25T02:16:48;101150.81;;;3.80;100.00
21086;BME280;34247;50.064;19.970;2023-01-25T02:17:53;101149.06;;;3.80;100.00
21086;BME280;34247;50.064;19.970;2023-01-25T02:18:59;101153.44;;;3.80;100.00
21086;BME280;34247;50.064;19.970;2023-01-25T02:21:18;101142.94;;;3.80;100.00
21086;BME280;34247;50.064;19.970;2023-01-25T02:24:27;101149.91;;;3.81;100.00
21086;BME280;34247;50.064;19.970;2023-01-25T02:25:33;101142.94;;;3.78;100.00
21086;BME280;34247;50.064;19.970;2023-01-25T02:26:38;101149.06;;;3.79;100.00
21086;BME280;34247;50.064;19.970;2023-01-25T02:28:05;101148.19;;;3.80;100.00
21086;BME280;34247;50.064;19.970;2023-01-25T02:29:18;101154.31;;;3.79;100.00
21086;BME280;34247;50.064;19.970;2023-01-25T02:30:27;101162.19;;;3.80;100.00
21086;BME280;34247;50.064;19.970;2023-01-25T02:31:31;101156.97;;;3.79;100.00
21086;BME280;34247;50.064;19.970;2023-01-25T02:32:36;101156.97;;;3.79;100.00
21086;BME280;34247;50.064;19.970;2023-01-25T02:33:41;101159.56;;;3.80;100.00
21086;BME280;34247;50.064;19.970;2023-01-25T02:34:45;101166.53;;;3.81;100.00
21086;BME280;34247;50.064;19.970;2023-01-25T02:37:20;101160.44;;;3.81;100.00
21086;BME280;34247;50.064;19.970;2023-01-25T02:38:24;101159.53;;;3.82;100.00
21086;BME280;34247;50.064;19.970;2023-01-25T02:39:29;101159.50;;;3.83;100.00
21086;BME280;34247;50.064;19.970;2023-01-25T02:40:46;101161.28;;;3.81;100.00
21086;BME280;34247;50.064;19.970;2023-01-25T02:41:51;101154.28;;;3.82;100.00
21086;BME280;34247;50.064;19.970;2023-01-25T02:42:58;101153.41;;;3.81;100.00
21086;BME280;34247;50.064;19.970;2023-01-25T02:44:19;101157.81;;;3.81;100.00
21086;BME280;34247;50.064;19.970;2023-01-25T02:45:28;101155.16;;;3.81;100.00
21086;BME280;34247;50.064;19.970;2023-01-25T02:46:35;101151.69;;;3.79;100.00
21086;BME280;34247;50.064;19.970;2023-01-25T02:47:40;101152.56;;;3.79;100.00
21086;BME280;34247;50.064;19.970;2023-01-25T02:48:44;101154.34;;;3.77;100.00
21086;BME280;34247;50.064;19.970;2023-01-25T02:49:48;101159.59;;;3.76;100.00
21086;BME280;34247;50.064;19.970;2023-01-25T02:50:52;101164.91;;;3.73;100.00
21086;BME280;34247;50.064;19.970;2023-01-25T02:51:56;101158.75;;;3.77;100.00
21086;BME280;34247;50.064;19.970;2023-01-25T02:53:00;101157.84;;;3.78;100.00
21086;BME280;34247;50.064;19.970;2023-01-25T02:54:12;101160.47;;;3.78;100.00
21086;BME280;34247;50.064;19.970;2023-01-25T02:55:16;101154.34;;;3.77;100.00
21086;BME280;34247;50.064;19.970;2023-01-25T02:56:22;101156.09;;;3.77;100.00
21086;BME280;34247;50.064;19.970;2023-01-25T02:57:25;101160.47;;;3.78;100.00
21086;BME280;34247;50.064;19.970;2023-01-25T02:58:32;101149.97;;;3.78;100.00
21086;BME280;34247;50.064;19.970;2023-01-25T02:59:36;101151.69;;;3.79;100.00
21086;BME280;34247;50.064;19.970;2023-01-25T03:00:41;101152.59;;;3.75;100.00
21086;BME280;34247;50.064;19.970;2023-01-25T03:01:45;101144.72;;;3.75;100.00
21086;BME280;34247;50.064;19.970;2023-01-25T03:02:49;101143.09;;;3.62;100.00
21086;BME280;34247;50.064;19.970;2023-01-25T03:03:53;101143.06;;;3.68;100.00
21086;BME280;34247;50.064;19.970;2023-01-25T03:04:57;101144.78;;;3.72;100.00
21086;BME280;34247;50.064;19.970;2023-01-25T03:06:01;101142.09;;;3.75;100.00
21086;BME280;34247;50.064;19.970;2023-01-25T03:07:05;101151.69;;;3.79;100.00
21086;BME280;34247;50.064;19.970;2023-01-25T03:08:15;101148.19;;;3.80;100.00
21086;BME280;34247;50.064;19.970;2023-01-25T03:09:19;101138.56;;;3.79;100.00
21086;BME280;34247;50.064;19.970;2023-01-25T03:10:23;101144.66;;;3.81;100.00
21086;BME280;34247;50.064;19.970;2023-01-25T03:11:27;101141.19;;;3.79;100.00
21086;BME280;34247;50.064;19.970;2023-01-25T03:12:33;101145.63;;;3.72;100.00
21086;BME280;34247;50.064;19.970;2023-01-25T03:13:37;101146.56;;;3.70;100.00
21086;BME280;34247;50.064;19.970;2023-01-25T03:14:41;101146.47;;;3.76;100.00
21086;BME280;34247;50.064;19.970;2023-01-25T03:15:46;101147.34;;;3.78;100.00
21086;BME280;34247;50.064;19.970;2023-01-25T03:16:50;101145.59;;;3.78;100.00
21086;BME280;34247;50.064;19.970;2023-01-25T03:17:56;101142.97;;;3.77;100.00
21086;BME280;34247;50.064;19.970;2023-01-25T03:18:59;101144.72;;;3.78;100.00
21086;BME280;34247;50.064;19.970;2023-01-25T03:20:03;101146.47;;;3.76;100.00
21086;BME280;34247;50.064;19.970;2023-01-25T03:21:19;101147.34;;;3.76;100.00
21086;BME280;34247;50.064;19.970;2023-01-25T03:22:23;101150.91;;;3.72;100.00
21086;BME280;34247;50.064;19.970;2023-01-25T03:23:29;101149.13;;;3.74;100.00
21086;BME280;34247;50.064;19.970;2023-01-25T03:24:33;101149.97;;;3.75;100.00
21086;BME280;34247;50.064;19.970;2023-01-25T03:25:37;101147.41;;;3.72;100.00
21086;BME280;34247;50.064;19.970;2023-01-25T03:26:42;101149.13;;;3.73;100.00
21086;BME280;34247;50.064;19.970;2023-01-25T03:28:24;101148.25;;;3.72;100.00
21086;BME280;34247;50.064;19.970;2023-01-25T03:29:28;101151.75;;;3.73;100.00
21086;BME280;34247;50.064;19.970;2023-01-25T03:30:32;101143.94;;;3.70;100.00
21086;BME280;34247;50.064;19.970;2023-01-25T03:31:36;101143.94;;;3.70;100.00
21086;BME280;34247;50.064;19.970;2023-01-25T03:32:39;101146.56;;;3.70;100.00
21086;BME280;34247;50.064;19.970;2023-01-25T03:33:44;101148.28;;;3.71;100.00
21086;BME280;34247;50.064;19.970;2023-01-25T03:34:48;101143.03;;;3.71;100.00
21086;BME280;34247;50.064;19.970;2023-01-25T03:35:56;101141.28;;;3.71;100.00
21086;BME280;34247;50.064;19.970;2023-01-25T03:37:00;101132.53;;;3.71;100.00
21086;BME280;34247;50.064;19.970;2023-01-25T03:38:03;101131.63;;;3.72;100.00
21086;BME280;34247;50.064;19.970;2023-01-25T03:39:15;101136.00;;;3.73;100.00
21086;BME280;34247;50.064;19.970;2023-01-25T03:40:20;101137.72;;;3.74;100.00
21086;BME280;34247;50.064;19.970;2023-01-25T03:41:24;101134.25;;;3.73;100.00
21086;BME280;34247;50.064;19.970;2023-01-25T03:42:28;101131.59;;;3.75;100.00
21086;BME280;34247;50.064;19.970;2023-01-25T03:43:31;101131.56;;;3.76;100.00
21086;BME280;34247;50.064;19.970;2023-01-25T03:44:35;101132.47;;;3.77;100.00
21086;BME280;34247;50.064;19.970;2023-01-25T03:45:39;101135.13;;;3.74;100.00
21086;BME280;34247;50.064;19.970;2023-01-25T03:46:43;101129.00;;;3.72;100.00
21086;BME280;34247;50.064;19.970;2023-01-25T03:47:46;101130.69;;;3.79;100.00
21086;BME280;34247;50.064;19.970;2023-01-25T03:48:50;101128.94;;;3.79;100.00
21086;BME280;34247;50.064;19.970;2023-01-25T03:49:53;101126.25;;;3.82;100.00
21086;BME280;34247;50.064;19.970;2023-01-25T03:50:58;101126.25;;;3.84;100.00
21086;BME280;34247;50.064;19.970;2023-01-25T03:52:03;101125.38;;;3.82;100.00
21086;BME280;34247;50.064;19.970;2023-01-25T03:53:13;101126.25;;;3.82;100.00
21086;BME280;34247;50.064;19.970;2023-01-25T03:54:30;101117.56;;;3.79;100.00
21086;BME280;34247;50.064;19.970;2023-01-25T03:55:34;101121.06;;;3.78;100.00
21086;BME280;34247;50.064;19.970;2023-01-25T03:56:38;101127.22;;;3.77;100.00
21086;BME280;34247;50.064;19.970;2023-01-25T03:57:41;101121.94;;;3.78;100.00
21086;BME280;34247;50.064;19.970;2023-01-25T03:58:46;101119.28;;;3.80;100.00
21086;BME280;34247;50.064;19.970;2023-01-25T03:59:50;101127.19;;;3.78;100.00
21086;BME280;34247;50.064;19.970;2023-01-25T04:00:57;101118.44;;;3.78;100.00
21086;BME280;34247;50.064;19.970;2023-01-25T04:02:01;101118.44;;;3.78;100.00
21086;BME280;34247;50.064;19.970;2023-01-25T04:03:14;101126.25;;;3.82;100.00
21086;BME280;34247;50.064;19.970;2023-01-25T04:04:20;101125.38;;;3.82;100.00
21086;BME280;34247;50.064;19.970;2023-01-25T04:05:24;101125.38;;;3.82;100.00
21086;BME280;34247;50.064;19.970;2023-01-25T04:06:28;101124.50;;;3.83;100.00
21086;BME280;34247;50.064;19.970;2023-01-25T04:07:32;101126.25;;;3.82;100.00
21086;BME280;34247;50.064;19.970;2023-01-25T04:08:37;101117.50;;;3.82;100.00
21086;BME280;34247;50.064;19.970;2023-01-25T04:09:41;101106.97;;;3.83;100.00
21086;BME280;34247;50.064;19.970;2023-01-25T04:11:11;101108.72;;;3.83;100.00
21086;BME280;34247;50.064;19.970;2023-01-25T04:12:16;101104.38;;;3.80;100.00
21086;BME280;34247;50.064;19.970;2023-01-25T04:13:24;101113.13;;;3.81;100.00
21086;BME280;34247;50.064;19.970;2023-01-25T04:14:30;101103.50;;;3.81;100.00
21086;BME280;34247;50.064;19.970;2023-01-25T04:15:47;101107.88;;;3.81;100.00
21086;BME280;34247;50.064;19.970;2023-01-25T04:16:51;101112.25;;;3.82;100.00
21086;BME280;34247;50.064;19.970;2023-01-25T04:17:55;101100.91;;;3.80;100.00
21086;BME280;34247;50.064;19.970;2023-01-25T04:19:01;101106.19;;;3.77;100.00
21086;BME280;34247;50.064;19.970;2023-01-25T04:20:11;101103.53;;;3.80;100.00
21086;BME280;34247;50.064;19.970;2023-01-25T04:21:17;101097.44;;;3.75;100.00
21086;BME280;34247;50.064;19.970;2023-01-25T04:22:20;101096.53;;;3.79;100.00
21086;BME280;34247;50.064;19.970;2023-01-25T04:23:26;101098.25;;;3.81;100.00
21086;BME280;34247;50.064;19.970;2023-01-25T04:24:30;101099.09;;;3.82;100.00
21086;BME280;34247;50.064;19.970;2023-01-25T04:25:34;101101.72;;;3.83;100.00
21086;BME280;34247;50.064;19.970;2023-01-25T04:26:39;101094.72;;;3.84;100.00
21086;BME280;34247;50.064;19.970;2023-01-25T04:27:43;101095.59;;;3.84;100.00
21086;BME280;34247;50.064;19.970;2023-01-25T04:28:47;101087.69;;;3.86;100.00
21086;BME280;34247;50.064;19.970;2023-01-25T04:29:51;101094.72;;;3.85;100.00
21086;BME280;34247;50.064;19.970;2023-01-25T04:30:56;101082.44;;;3.86;100.00
21086;BME280;34247;50.064;19.970;2023-01-25T04:32:01;101088.53;;;3.88;100.00
21086;BME280;34247;50.064;19.970;2023-01-25T04:33:14;101089.41;;;3.88;100.00
21086;BME280;34247;50.064;19.970;2023-01-25T04:34:18;101086.81;;;3.87;99.98
21086;BME280;34247;50.064;19.970;2023-01-25T04:35:22;101089.41;;;3.88;100.00
21086;BME280;34247;50.064;19.970;2023-01-25T04:36:26;101090.28;;;3.89;100.00
21086;BME280;34247;50.064;19.970;2023-01-25T04:37:30;101087.63;;;3.89;99.94
21086;BME280;34247;50.064;19.970;2023-01-25T04:38:34;101090.28;;;3.89;99.97
21086;BME280;34247;50.064;19.970;2023-01-25T04:39:38;101090.28;;;3.89;99.84
21086;BME280;34247;50.064;19.970;2023-01-25T04:40:43;101085.88;;;3.90;100.00
21086;BME280;34247;50.064;19.970;2023-01-25T04:41:50;101088.50;;;3.91;100.00
21086;BME280;34247;50.064;19.970;2023-01-25T04:42:54;101092.88;;;3.91;100.00
21086;BME280;34247;50.064;19.970;2023-01-25T04:43:58;101091.16;;;3.91;100.00
21086;BME280;34247;50.064;19.970;2023-01-25T04:45:02;101093.78;;;3.91;100.00
21086;BME280;34247;50.064;19.970;2023-01-25T04:46:14;101092.88;;;3.91;100.00
21086;BME280;34247;50.064;19.970;2023-01-25T04:47:18;101091.97;;;3.93;100.00
21086;BME280;34247;50.064;19.970;2023-01-25T04:48:21;101090.25;;;3.92;100.00
21086;BME280;34247;50.064;19.970;2023-01-25T04:49:25;101086.75;;;3.92;99.99
21086;BME280;34247;50.064;19.970;2023-01-25T04:50:29;101088.50;;;3.91;100.00
21086;BME280;34247;50.064;19.970;2023-01-25T04:51:34;101090.31;;;3.86;99.89
21086;BME280;34247;50.064;19.970;2023-01-25T04:52:38;101085.97;;;3.85;99.99
21086;BME280;34247;50.064;19.970;2023-01-25T04:53:41;101085.06;;;3.86;99.92
21086;BME280;34247;50.064;19.970;2023-01-25T04:54:45;101085.94;;;3.86;100.00
21086;BME280;34247;50.064;19.970;2023-01-25T04:55:49;101087.66;;;3.87;100.00
21086;BME280;34247;50.064;19.970;2023-01-25T04:56:53;101082.41;;;3.87;100.00
21086;BME280;34247;50.064;19.970;2023-01-25T04:57:56;101087.63;;;3.89;100.00
21086;BME280;34247;50.064;19.970;2023-01-25T04:59:00;101082.38;;;3.89;100.00
21086;BME280;34247;50.064;19.970;2023-01-25T05:00:05;101085.88;;;3.90;100.00
21086;BME280;34247;50.064;19.970;2023-01-25T05:01:14;101083.34;;;3.85;100.00
21086;BME280;34247;50.064;19.970;2023-01-25T05:02:18;101077.19;;;3.86;100.00
21086;BME280;34247;50.064;19.970;2023-01-25T05:03:22;101072.78;;;3.86;100.00
21086;BME280;34247;50.064;19.970;2023-01-25T05:04:25;101071.97;;;3.84;100.00
21086;BME280;34247;50.064;19.970;2023-01-25T05:05:29;101076.28;;;3.87;100.00
21086;BME280;34247;50.064;19.970;2023-01-25T05:06:36;101071.09;;;3.84;100.00
21086;BME280;34247;50.064;19.970;2023-01-25T05:07:40;101077.22;;;3.84;100.00
21086;BME280;34247;50.064;19.970;2023-01-25T05:08:44;101075.53;;;3.77;100.00
21086;BME280;34247;50.064;19.970;2023-01-25T05:09:50;101079.88;;;3.80;100.00
21086;BME280;34247;50.064;19.970;2023-01-25T05:10:54;101072.91;;;3.79;100.00
21086;BME280;34247;50.064;19.970;2023-01-25T05:11:58;101071.16;;;3.78;100.00
21086;BME280;34247;50.064;19.970;2023-01-25T05:13:02;101072.00;;;3.80;100.00
21086;BME280;34247;50.064;19.970;2023-01-25T05:14:12;101074.63;;;3.80;100.00
21086;BME280;34247;50.064;19.970;2023-01-25T05:15:17;101068.53;;;3.76;100.00
21086;BME280;34247;50.064;19.970;2023-01-25T05:16:20;101075.56;;;3.74;100.00
21086;BME280;34247;50.064;19.970;2023-01-25T05:17:25;101072.06;;;3.74;100.00
21086;BME280;34247;50.064;19.970;2023-01-25T05:18:29;101068.56;;;3.75;100.00
21086;BME280;34247;50.064;19.970;2023-01-25T05:19:50;101074.69;;;3.77;100.00
21086;BME280;34247;50.064;19.970;2023-01-25T05:20:54;101069.44;;;3.77;100.00
21086;BME280;34247;50.064;19.970;2023-01-25T05:21:59;101074.66;;;3.78;100.00
21086;BME280;34247;50.064;19.970;2023-01-25T05:23:04;101061.53;;;3.77;100.00
21086;BME280;34247;50.064;19.970;2023-01-25T05:24:16;101059.78;;;3.77;100.00
21086;BME280;34247;50.064;19.970;2023-01-25T05:25:27;101068.53;;;3.76;100.00
21086;BME280;34247;50.064;19.970;2023-01-25T05:26:49;101064.19;;;3.74;100.00
21086;BME280;34247;50.064;19.970;2023-01-25T05:28:16;101065.91;;;3.76;100.00
21086;BME280;34247;50.064;19.970;2023-01-25T05:29:20;101067.66;;;3.76;100.00
21086;BME280;34247;50.064;19.970;2023-01-25T05:30:25;101070.28;;;3.77;100.00
21086;BME280;34247;50.064;19.970;2023-01-25T05:31:29;101062.41;;;3.77;100.00
21086;BME280;34247;50.064;19.970;2023-01-25T05:32:36;101066.81;;;3.77;100.00
21086;BME280;34247;50.064;19.970;2023-01-25T05:33:43;101067.63;;;3.79;100.00
21086;BME280;34247;50.064;19.970;2023-01-25T05:34:49;101073.78;;;3.78;100.00
21086;BME280;34247;50.064;19.970;2023-01-25T05:35:53;101070.28;;;3.77;100.00
21086;BME280;34247;50.064;19.970;2023-01-25T05:37:00;101065.94;;;3.75;100.00
21086;BME280;34247;50.064;19.970;2023-01-25T05:38:04;101072.94;;;3.74;100.00
21086;BME280;34247;50.064;19.970;2023-01-25T05:39:17;101070.34;;;3.73;100.00
21086;BME280;34247;50.064;19.970;2023-01-25T05:40:21;101065.94;;;3.75;100.00
21086;BME280;34247;50.064;19.970;2023-01-25T05:41:29;101067.66;;;3.76;100.00
21086;BME280;34247;50.064;19.970;2023-01-25T05:42:36;101064.19;;;3.74;100.00
21086;BME280;34247;50.064;19.970;2023-01-25T05:43:39;101065.03;;;3.76;100.00
21086;BME280;34247;50.064;19.970;2023-01-25T05:44:44;101068.53;;;3.78;100.00
21086;BME280;34247;50.064;19.970;2023-01-25T05:45:53;101058.91;;;3.77;100.00
21086;BME280;34247;50.064;19.970;2023-01-25T05:46:56;101063.25;;;3.79;100.00
21086;BME280;34247;50.064;19.970;2023-01-25T05:48:00;101057.13;;;3.79;100.00
21086;BME280;34247;50.064;19.970;2023-01-25T05:49:04;101057.16;;;3.76;100.00
21086;BME280;34247;50.064;19.970;2023-01-25T05:50:15;101061.53;;;3.78;100.00
21086;BME280;34247;50.064;19.970;2023-01-25T05:51:21;101063.28;;;3.78;100.00